Key South — 9HA2267 — position and weather

sailwx.info

Track history (hours):
 
Tides and Currents Weather Stations Pressure Air Temp Water Temp Dewpoint Dewpoint Depression Visibility Wind Speed Wind Dir Waves Ship Positions

Key South

Last reported at 2018-Feb-23 16:49 UTC. Time now 2018-Feb-24 10:03 UTC.
Position N 58°32' E 004°39'.

Length 109 m; draft 5.2 m.

Type: Tanker. MMSI: 248221000.

Date/timePositionNaut miles runAvg speedWind from/ knotsBaromVisibWave heightAir tempDewpointWater temp
2018-Feb-23 16:49N 58°32' E 004°39'713.3
2018-Feb-23 16:18N 58°37' E 004°48'712.6
2018-Feb-23 15:45N 58°42' E 004°57'311.8
2018-Feb-23 15:30N 58°45' E 005°01'612.1
2018-Feb-23 15:00N 58°49' E 005°08'612.2
2018-Feb-23 14:30N 58°54' E 005°16'612.8
2018-Feb-23 14:00N 59°00' E 005°18'713.4
2018-Feb-23 13:30N 59°07' E 005°20'713.1
2018-Feb-23 13:00N 59°14' E 005°20'612.4
2018-Feb-23 12:30N 59°20' E 005°19'4 8.8
2018-Feb-23 12:00N 59°24' E 005°16'0 0.3
2018-Feb-23 11:29N 59°24' E 005°16'0 0.0
2018-Feb-23 10:59N 59°24' E 005°16'0 0.0
2018-Feb-23 10:29N 59°24' E 005°16'0 0.0
2018-Feb-23 09:59N 59°24' E 005°16'0 0.6
2018-Feb-23 09:30N 59°24' E 005°16'510.2
2018-Feb-23 09:00N 59°28' E 005°09'612.5
2018-Feb-23 08:30N 59°31' E 004°58'611.9
2018-Feb-23 08:00N 59°35' E 004°50'612.2
2018-Feb-23 07:31N 59°39' E 004°42'6612.0
2018-Feb-23 01:58N 60°45' E 004°19'511.0
2018-Feb-23 01:30N 60°50' E 004°17'510.5
2018-Feb-23 01:00N 60°55' E 004°16'5 9.7
2018-Feb-23 00:30N 60°60' E 004°16'510.6
2018-Feb-23 00:00N 61°05' E 004°17'510.6
2018-Feb-22 23:30N 61°10' E 004°18'611.0
2018-Feb-22 23:00N 61°16' E 004°18'510.4
2018-Feb-22 22:30N 61°21' E 004°19'611.3
2018-Feb-22 22:00N 61°27' E 004°20'612.1
2018-Feb-22 21:30N 61°33' E 004°21'612.0
2018-Feb-22 21:00N 61°39' E 004°22'611.8
2018-Feb-22 20:29N 61°45' E 004°23'511.3
2018-Feb-22 20:00N 61°50' E 004°24'611.4
2018-Feb-22 19:30N 61°56' E 004°26'611.3
2018-Feb-22 19:00N 62°01' E 004°28'611.6
2018-Feb-22 18:30N 62°07' E 004°34'611.8
2018-Feb-22 18:00N 62°12' E 004°39'611.0
2018-Feb-22 17:30N 62°17' E 004°45'611.0
2018-Feb-22 17:00N 62°22' E 004°50'611.8
2018-Feb-22 16:30N 62°27' E 004°56'611.8
2018-Feb-22 15:59N 62°32' E 005°03'28711.9
2018-Feb-21 15:52N 66°29' E 011°20'411.0
2018-Feb-21 15:30N 66°32' E 011°27'611.4
2018-Feb-21 15:00N 66°35' E 011°40'611.2
2018-Feb-21 14:30N 66°37' E 011°52'611.3
2018-Feb-21 14:01N 66°40' E 012°04'612.3
2018-Feb-21 13:30N 66°41' E 012°19'713.1
2018-Feb-21 13:00N 66°42' E 012°36'612.8
2018-Feb-21 12:29N 66°43' E 012°52'613.4
2018-Feb-21 12:00N 66°44' E 013°08'713.7
2018-Feb-21 11:30N 66°45' E 013°25'2 3.3
2018-Feb-21 10:58N 66°45' E 013°30'0 0.0
2018-Feb-21 10:28N 66°45' E 013°30'0 0.0
2018-Feb-21 09:58N 66°45' E 013°30'0 0.0
2018-Feb-21 09:25N 66°45' E 013°30'0 0.0
2018-Feb-21 08:58N 66°45' E 013°30'0 0.0
2018-Feb-21 08:28N 66°45' E 013°30'0 0.0
2018-Feb-21 07:58N 66°45' E 013°30'0 0.0
2018-Feb-21 07:28N 66°45' E 013°30'0 0.0
2018-Feb-21 06:58N 66°45' E 013°30'0 0.0
2018-Feb-21 06:28N 66°45' E 013°30'0 0.0
2018-Feb-21 05:58N 66°45' E 013°30'0 0.0
2018-Feb-21 05:28N 66°45' E 013°30'0 0.0
2018-Feb-21 04:58N 66°45' E 013°30'0 0.0
2018-Feb-21 04:28N 66°45' E 013°30'0 0.0
2018-Feb-21 03:58N 66°45' E 013°30'0 0.0
2018-Feb-21 03:29N 66°45' E 013°30'0 0.0
2018-Feb-21 03:00N 66°45' E 013°30'1 1.6
2018-Feb-21 02:30N 66°45' E 013°28'511.0
2018-Feb-21 02:00N 66°45' E 013°14'612.1
2018-Feb-21 01:30N 66°51' E 013°18'5 9.4
2018-Feb-21 01:00N 66°54' E 013°09'510.4
2018-Feb-21 00:30N 66°57' E 012°59'612.4
2018-Feb-21 00:00N 67°04' E 012°59'612.7
2018-Feb-20 23:30N 67°10' E 012°58'712.8
2018-Feb-20 22:59N 67°16' E 013°06'613.5
2018-Feb-20 22:30N 67°21' E 013°15'713.0
2018-Feb-20 21:58N 67°27' E 013°24'612.5
2018-Feb-20 21:30N 67°31' E 013°35'713.2
2018-Feb-20 21:00N 67°36' E 013°45'713.5
2018-Feb-20 20:30N 67°42' E 013°56'713.2
2018-Feb-20 19:59N 67°48' E 014°06'613.6
2018-Feb-20 19:30N 67°53' E 014°15'713.8
2018-Feb-20 19:00N 67°58' E 014°26'713.8
2018-Feb-20 18:29N 68°04' E 014°38'714.2
2018-Feb-20 18:00N 68°10' E 014°48'713.6
2018-Feb-20 17:30N 68°16' E 014°57'612.4
2018-Feb-20 17:00N 68°22' E 015°03'611.5
2018-Feb-20 16:30N 68°27' E 015°10'5 9.7
2018-Feb-20 16:00N 68°31' E 015°09'612.1
2018-Feb-20 15:30N 68°37' E 015°17'611.9
2018-Feb-20 15:00N 68°42' E 015°26'612.4
2018-Feb-20 14:30N 68°48' E 015°26'612.8
2018-Feb-20 14:00N 68°54' E 015°23'613.2
2018-Feb-20 13:30N 69°01' E 015°23'713.1
2018-Feb-20 13:00N 69°07' E 015°31'713.2
2018-Feb-20 12:29N 69°13' E 015°39'713.1
2018-Feb-20 11:59N 69°19' E 015°48'613.1
2018-Feb-20 11:30N 69°23' E 016°01'713.2
2018-Feb-20 11:00N 69°26' E 016°17'613.1
2018-Feb-20 10:30N 69°29' E 016°34'713.5
2018-Feb-20 10:00N 69°32' E 016°52'713.4
2018-Feb-20 09:30N 69°36' E 017°09'713.3
2018-Feb-20 09:00N 69°39' E 017°25'713.2
2018-Feb-20 08:30N 69°40' E 017°44'713.6
2018-Feb-20 08:00N 69°35' E 017°56'713.9
2018-Feb-20 07:30N 69°30' E 018°12'713.9
2018-Feb-20 07:00N 69°32' E 018°31'714.8
2018-Feb-20 06:31N 69°34' E 018°51'713.7
2018-Feb-20 06:00N 69°27' E 018°57'713.2
2018-Feb-20 05:30N 69°22' E 019°07'612.4
2018-Feb-20 04:59N 69°19' E 019°23'4 8.7
2018-Feb-20 04:29N 69°14' E 019°22'0 0.0
2018-Feb-20 03:59N 69°14' E 019°22'0 0.0
2018-Feb-20 03:29N 69°14' E 019°22'0 0.0
2018-Feb-20 02:59N 69°14' E 019°22'0 0.0
2018-Feb-20 02:29N 69°14' E 019°22'0 0.0
2018-Feb-20 01:59N 69°14' E 019°22'0 0.0
2018-Feb-20 01:29N 69°14' E 019°22'0 0.0
2018-Feb-20 00:59N 69°14' E 019°22'0 0.0
2018-Feb-20 00:29N 69°14' E 019°22'0 0.0
2018-Feb-19 23:59N 69°14' E 019°22'0 0.0
2018-Feb-19 23:29N 69°14' E 019°22'0 0.0
2018-Feb-19 22:59N 69°14' E 019°22'0 0.0
2018-Feb-19 22:29N 69°14' E 019°22'0 0.0
2018-Feb-19 21:59N 69°14' E 019°22'0 0.0
2018-Feb-19 21:29N 69°14' E 019°22'0 0.0
2018-Feb-19 20:59N 69°14' E 019°22'0 0.0
2018-Feb-19 20:29N 69°14' E 019°22'0 0.0
2018-Feb-19 19:59N 69°14' E 019°22'0 0.0
2018-Feb-19 19:29N 69°14' E 019°22'0 0.0
2018-Feb-19 18:59N 69°14' E 019°22'0 0.0
2018-Feb-19 18:29N 69°14' E 019°22'0 0.0
2018-Feb-19 17:59N 69°14' E 019°22'0 0.0
2018-Feb-19 17:29N 69°14' E 019°22'0 0.0
2018-Feb-19 16:59N 69°14' E 019°22'0 0.0
2018-Feb-19 16:29N 69°14' E 019°22'0 0.1
2018-Feb-19 15:59N 69°14' E 019°22'0 0.0
2018-Feb-19 15:29N 69°14' E 019°22'0 0.0
2018-Feb-19 14:59N 69°14' E 019°22'0 0.0
2018-Feb-19 14:29N 69°14' E 019°22'0 0.0
2018-Feb-19 13:59N 69°14' E 019°22'0 0.0
2018-Feb-19 13:29N 69°14' E 019°22'0 0.0
2018-Feb-19 13:01N 69°14' E 019°22'0 0.1
2018-Feb-19 12:30N 69°14' E 019°22'2 4.6
2018-Feb-19 12:00N 69°17' E 019°22'611.5
2018-Feb-19 11:30N 69°22' E 019°13'611.2
2018-Feb-19 10:59N 69°25' E 019°01'612.7
2018-Feb-19 10:30N 69°31' E 018°55'510.5
2018-Feb-19 10:00N 69°33' E 018°41'713.3
2018-Feb-19 09:30N 69°31' E 018°23'612.1
2018-Feb-19 08:59N 69°31' E 018°06'612.5
2018-Feb-19 08:30N 69°36' E 017°54'611.1
2018-Feb-19 08:00N 69°40' E 017°42'612.4
2018-Feb-19 07:30N 69°39' E 017°25'713.2
2018-Feb-19 07:00N 69°37' E 017°07'713.2
2018-Feb-19 06:30N 69°35' E 016°49'712.7
2018-Feb-19 05:59N 69°33' E 016°30'613.2
2018-Feb-19 05:30N 69°31' E 016°13'713.2
2018-Feb-19 04:59N 69°30' E 015°54'613.3
2018-Feb-19 04:30N 69°28' E 015°36'713.3
2018-Feb-19 04:00N 69°26' E 015°19'713.4
2018-Feb-19 03:30N 69°21' E 015°04'713.1
2018-Feb-19 02:59N 69°17' E 014°50'612.8
2018-Feb-19 02:30N 69°13' E 014°37'713.1
2018-Feb-19 02:00N 69°09' E 014°22'713.2
2018-Feb-19 01:30N 69°03' E 014°11'612.9
2018-Feb-19 01:00N 68°58' E 014°01'712.8
2018-Feb-19 00:29N 68°53' E 013°50'612.8
2018-Feb-19 00:00N 68°47' E 013°40'713.0
2018-Feb-18 23:30N 68°42' E 013°30'613.0
2018-Feb-18 23:00N 68°37' E 013°20'713.0
2018-Feb-18 22:30N 68°32' E 013°09'712.9
2018-Feb-18 22:00N 68°26' E 012°59'612.7
2018-Feb-18 21:30N 68°21' E 012°49'613.1
2018-Feb-18 21:00N 68°16' E 012°38'713.6
2018-Feb-18 20:29N 68°11' E 012°27'613.0
2018-Feb-18 20:00N 68°05' E 012°17'29712.5
2018-Feb-17 20:15N 63°36' E 007°10'512.7
2018-Feb-17 19:54N 63°32' E 007°04'512.4
2018-Feb-17 19:30N 63°28' E 006°58'713.6
2018-Feb-17 19:00N 63°24' E 006°48'5213.3
2018-Feb-17 15:05N 62°46' E 005°28'112.8
2018-Feb-17 14:58N 62°45' E 005°26'2512.7
2018-Feb-17 13:00N 62°25' E 004°52'713.3
2018-Feb-17 12:30N 62°19' E 004°48'713.1
2018-Feb-17 11:59N 62°13' E 004°43'713.6
2018-Feb-17 11:29N 62°06' E 004°39'714.7
2018-Feb-17 11:00N 61°59' E 004°35'714.4
2018-Feb-17 10:30N 61°52' E 004°31'713.1
2018-Feb-17 10:00N 61°46' E 004°29'510.6
2018-Feb-17 09:30N 61°43' E 004°38'611.4
2018-Feb-17 09:00N 61°41' E 004°49'713.2
2018-Feb-17 08:30N 61°36' E 004°58'1 2.4
2018-Feb-17 07:59N 61°35' E 005°00'0 0.0
2018-Feb-17 07:30N 61°35' E 005°00'0 0.0
2018-Feb-17 07:00N 61°35' E 005°00'0 0.0
2018-Feb-17 06:30N 61°35' E 005°00'0 0.0
2018-Feb-17 06:00N 61°35' E 005°00'0 0.0
2018-Feb-17 05:30N 61°35' E 005°00'0 0.0
2018-Feb-17 05:00N 61°35' E 005°00'0 0.0
2018-Feb-17 04:30N 61°35' E 005°00'0 0.0
2018-Feb-17 04:00N 61°35' E 005°00'0 0.0
2018-Feb-17 03:30N 61°35' E 005°00'0 0.0
2018-Feb-17 03:00N 61°35' E 005°00'0 0.0
2018-Feb-17 02:30N 61°35' E 005°00'0 0.0
2018-Feb-17 02:00N 61°35' E 005°00'0 0.0
2018-Feb-17 01:30N 61°35' E 005°00'0 0.0
2018-Feb-17 01:00N 61°35' E 005°00'0 0.0
2018-Feb-17 00:30N 61°35' E 005°00'0 0.0
2018-Feb-17 00:00N 61°35' E 005°00'0 0.0
2018-Feb-16 23:30N 61°35' E 005°00'0 0.0
2018-Feb-16 23:00N 61°35' E 005°00'0 0.0
2018-Feb-16 22:30N 61°35' E 005°00'0 0.0
2018-Feb-16 22:00N 61°35' E 005°00'0 0.0
2018-Feb-16 21:30N 61°35' E 005°00'0 0.0
2018-Feb-16 21:00N 61°35' E 005°00'0 0.0
2018-Feb-16 20:30N 61°35' E 005°00'0 0.0
2018-Feb-16 20:00N 61°35' E 005°00'0 0.0
2018-Feb-16 19:27N 61°35' E 005°00'0 0.0
2018-Feb-16 19:00N 61°35' E 005°00'0 0.0
2018-Feb-16 18:30N 61°35' E 005°00'1 1.6
2018-Feb-16 17:59N 61°35' E 004°59'3 6.8
2018-Feb-16 17:30N 61°33' E 004°53'611.2
2018-Feb-16 17:00N 61°32' E 004°41'611.3
2018-Feb-16 16:30N 61°30' E 004°30'611.3
2018-Feb-16 16:00N 61°27' E 004°20'2012.8
2018-Feb-16 14:25N 61°07' E 004°15'613.8
2018-Feb-16 14:00N 61°01' E 004°15'612.2
2018-Feb-16 13:30N 60°55' E 004°16'2611.4
2018-Feb-16 11:13N 60°29' E 004°16'310.7
2018-Feb-16 10:58N 60°26' E 004°16'4010.4
2018-Feb-16 07:06N 59°48' E 004°37'111.5
2018-Feb-16 06:59N 59°47' E 004°39'612.7
2018-Feb-16 06:30N 59°42' E 004°46'713.2
2018-Feb-16 06:00N 59°36' E 004°54'713.0
2018-Feb-16 05:30N 59°31' E 005°02'612.6
2018-Feb-16 05:00N 59°27' E 005°11'3 6.4
2018-Feb-16 04:29N 59°25' E 005°15'0 0.0
2018-Feb-16 03:59N 59°25' E 005°15'0 0.0
2018-Feb-16 03:29N 59°25' E 005°15'0 0.0
2018-Feb-16 02:59N 59°25' E 005°15'0 0.0
2018-Feb-16 02:29N 59°25' E 005°15'0 0.0
2018-Feb-16 01:59N 59°25' E 005°15'0 0.0
2018-Feb-16 01:29N 59°25' E 005°15'0 0.0
2018-Feb-16 00:59N 59°25' E 005°15'0 0.0
2018-Feb-16 00:30N 59°25' E 005°15'2 4.0
2018-Feb-16 00:00N 59°23' E 005°18'5 9.8
2018-Feb-15 23:30N 59°18' E 005°20'612.5
2018-Feb-15 23:00N 59°12' E 005°21'612.2
2018-Feb-15 22:30N 59°06' E 005°21'612.5
2018-Feb-15 22:00N 58°60' E 005°19'612.6
2018-Feb-15 21:30N 58°54' E 005°18'713.3
2018-Feb-15 21:01N 58°47' E 005°17'612.7
2018-Feb-15 20:31N 58°41' E 005°17'612.0
2018-Feb-15 20:01N 58°35' E 005°16'711.7
2018-Feb-15 19:26N 58°28' E 005°15'510.8
2018-Feb-15 19:00N 58°23' E 005°18'611.8
2018-Feb-15 18:30N 58°20' E 005°27'611.5
2018-Feb-15 18:00N 58°16' E 005°36'611.8
2018-Feb-15 17:30N 58°12' E 005°44'611.6
2018-Feb-15 17:00N 58°08' E 005°52'510.7
2018-Feb-15 16:31N 58°05' E 005°59'510.3
2018-Feb-15 16:00N 58°01' E 006°07'510.1
2018-Feb-15 15:31N 57°58' E 006°14'510.2
2018-Feb-15 14:59N 57°55' E 006°22'510.2
2018-Feb-15 14:30N 57°52' E 006°29'510.3
2018-Feb-15 13:59N 57°49' E 006°37'510.0
2018-Feb-15 13:30N 57°48' E 006°46'5 9.7
2018-Feb-15 13:01N 57°47' E 006°55'4 8.6
2018-Feb-15 12:30N 57°47' E 007°03'4 8.2
2018-Feb-15 12:00N 57°46' E 007°11'4 8.3
2018-Feb-15 11:30N 57°46' E 007°19'4 8.3
2018-Feb-15 11:01N 57°46' E 007°26'5 8.8
2018-Feb-15 10:30N 57°46' E 007°35'4 8.9
2018-Feb-15 10:00N 57°46' E 007°43'4 8.9
2018-Feb-15 09:29N 57°46' E 007°52'4 8.4
2018-Feb-15 09:00N 57°46' E 007°59'5 9.1
2018-Feb-15 08:30N 57°46' E 008°08'8210.3
2018-Feb-15 00:33N 57°49' E 010°41'110.1
2018-Feb-15 00:30N 57°49' E 010°42'510.9
2018-Feb-15 00:01N 57°47' E 010°51'612.4
2018-Feb-14 23:30N 57°42' E 010°59'713.1
2018-Feb-14 23:00N 57°38' E 011°08'713.4
2018-Feb-14 22:31N 57°33' E 011°17'713.0
2018-Feb-14 22:00N 57°29' E 011°25'612.2
2018-Feb-14 21:30N 57°23' E 011°30'713.1
2018-Feb-14 21:00N 57°17' E 011°33'713.0
2018-Feb-14 20:30N 57°11' E 011°37'612.4
2018-Feb-14 19:59N 57°05' E 011°42'5012.4
2018-Feb-14 16:00N 56°17' E 012°08'612.5
2018-Feb-14 15:31N 56°14' E 012°16'612.6
2018-Feb-14 15:01N 56°10' E 012°26'713.7
2018-Feb-14 14:30N 56°06' E 012°35'713.4
2018-Feb-14 14:00N 55°60' E 012°41'612.8
2018-Feb-14 13:30N 55°54' E 012°44'612.8
2018-Feb-14 13:00N 55°48' E 012°43'612.8
2018-Feb-14 12:30N 55°41' E 012°41'510.6
2018-Feb-14 12:00N 55°36' E 012°42'4 8.9
2018-Feb-14 11:30N 55°31' E 012°43'612.3
2018-Feb-14 11:00N 55°25' E 012°41'612.5
2018-Feb-14 10:30N 55°19' E 012°40'611.5
2018-Feb-14 09:59N 55°17' E 012°50'612.2
2018-Feb-14 09:30N 55°15' E 012°59'612.4
2018-Feb-14 08:59N 55°15' E 013°11'612.4
2018-Feb-14 08:30N 55°14' E 013°21'612.3
2018-Feb-14 08:00N 55°14' E 013°32'612.3
2018-Feb-14 07:29N 55°14' E 013°43'1712.0
2018-Feb-14 06:02N 55°10' E 014°13'112.7
2018-Feb-14 05:58N 55°10' E 014°14'612.6
2018-Feb-14 05:30N 55°06' E 014°21'612.5
2018-Feb-14 05:00N 55°01' E 014°29'612.4
2018-Feb-14 04:30N 54°57' E 014°37'612.3
2018-Feb-14 03:59N 54°52' E 014°45'612.1
2018-Feb-14 03:30N 54°49' E 014°53'612.2
2018-Feb-14 03:00N 54°49' E 015°03'712.3
2018-Feb-14 02:29N 54°49' E 015°14'9912.3
2018-Feb-13 18:25N 54°58' E 018°06'512.1
2018-Feb-13 18:00N 54°59' E 018°15'612.3
2018-Feb-13 17:30N 54°59' E 018°26'612.0
2018-Feb-13 17:00N 54°59' E 018°36'  
Track history (hours):
 
Tides and Currents Weather Stations Pressure Air Temp Water Temp Dewpoint Dewpoint Depression Visibility Wind Speed Wind Dir Waves Ship Positions

Key South

Last reported at 2018-Feb-23 16:49 UTC. Time now 2018-Feb-24 10:03 UTC.
Position N 58°32' E 004°39'.

Length 109 m; draft 5.2 m.

Type: Tanker. MMSI: 248221000.

Date/timePositionNaut miles runAvg speedWind from/ knotsBaromVisibWave heightAir tempDewpointWater temp
2018-Feb-23 16:49N 58°32' E 004°39'713.3
2018-Feb-23 16:18N 58°37' E 004°48'712.6
2018-Feb-23 15:45N 58°42' E 004°57'311.8
2018-Feb-23 15:30N 58°45' E 005°01'612.1
2018-Feb-23 15:00N 58°49' E 005°08'612.2
2018-Feb-23 14:30N 58°54' E 005°16'612.8
2018-Feb-23 14:00N 59°00' E 005°18'713.4
2018-Feb-23 13:30N 59°07' E 005°20'713.1
2018-Feb-23 13:00N 59°14' E 005°20'612.4
2018-Feb-23 12:30N 59°20' E 005°19'4 8.8
2018-Feb-23 12:00N 59°24' E 005°16'0 0.3
2018-Feb-23 11:29N 59°24' E 005°16'0 0.0
2018-Feb-23 10:59N 59°24' E 005°16'0 0.0
2018-Feb-23 10:29N 59°24' E 005°16'0 0.0
2018-Feb-23 09:59N 59°24' E 005°16'0 0.6
2018-Feb-23 09:30N 59°24' E 005°16'510.2
2018-Feb-23 09:00N 59°28' E 005°09'612.5
2018-Feb-23 08:30N 59°31' E 004°58'611.9
2018-Feb-23 08:00N 59°35' E 004°50'612.2
2018-Feb-23 07:31N 59°39' E 004°42'6612.0
2018-Feb-23 01:58N 60°45' E 004°19'511.0
2018-Feb-23 01:30N 60°50' E 004°17'510.5
2018-Feb-23 01:00N 60°55' E 004°16'5 9.7
2018-Feb-23 00:30N 60°60' E 004°16'510.6
2018-Feb-23 00:00N 61°05' E 004°17'510.6
2018-Feb-22 23:30N 61°10' E 004°18'611.0
2018-Feb-22 23:00N 61°16' E 004°18'510.4
2018-Feb-22 22:30N 61°21' E 004°19'611.3
2018-Feb-22 22:00N 61°27' E 004°20'612.1
2018-Feb-22 21:30N 61°33' E 004°21'612.0
2018-Feb-22 21:00N 61°39' E 004°22'611.8
2018-Feb-22 20:29N 61°45' E 004°23'511.3
2018-Feb-22 20:00N 61°50' E 004°24'611.4
2018-Feb-22 19:30N 61°56' E 004°26'611.3
2018-Feb-22 19:00N 62°01' E 004°28'611.6
2018-Feb-22 18:30N 62°07' E 004°34'611.8
2018-Feb-22 18:00N 62°12' E 004°39'611.0
2018-Feb-22 17:30N 62°17' E 004°45'611.0
2018-Feb-22 17:00N 62°22' E 004°50'611.8
2018-Feb-22 16:30N 62°27' E 004°56'611.8
2018-Feb-22 15:59N 62°32' E 005°03'28711.9
2018-Feb-21 15:52N 66°29' E 011°20'411.0
2018-Feb-21 15:30N 66°32' E 011°27'611.4
2018-Feb-21 15:00N 66°35' E 011°40'611.2
2018-Feb-21 14:30N 66°37' E 011°52'611.3
2018-Feb-21 14:01N 66°40' E 012°04'612.3
2018-Feb-21 13:30N 66°41' E 012°19'713.1
2018-Feb-21 13:00N 66°42' E 012°36'612.8
2018-Feb-21 12:29N 66°43' E 012°52'613.4
2018-Feb-21 12:00N 66°44' E 013°08'713.7
2018-Feb-21 11:30N 66°45' E 013°25'2 3.3
2018-Feb-21 10:58N 66°45' E 013°30'0 0.0
2018-Feb-21 10:28N 66°45' E 013°30'0 0.0
2018-Feb-21 09:58N 66°45' E 013°30'0 0.0
2018-Feb-21 09:25N 66°45' E 013°30'0 0.0
2018-Feb-21 08:58N 66°45' E 013°30'0 0.0
2018-Feb-21 08:28N 66°45' E 013°30'0 0.0
2018-Feb-21 07:58N 66°45' E 013°30'0 0.0
2018-Feb-21 07:28N 66°45' E 013°30'0 0.0
2018-Feb-21 06:58N 66°45' E 013°30'0 0.0
2018-Feb-21 06:28N 66°45' E 013°30'0 0.0
2018-Feb-21 05:58N 66°45' E 013°30'0 0.0
2018-Feb-21 05:28N 66°45' E 013°30'0 0.0
2018-Feb-21 04:58N 66°45' E 013°30'0 0.0
2018-Feb-21 04:28N 66°45' E 013°30'0 0.0
2018-Feb-21 03:58N 66°45' E 013°30'0 0.0
2018-Feb-21 03:29N 66°45' E 013°30'0 0.0
2018-Feb-21 03:00N 66°45' E 013°30'1 1.6
2018-Feb-21 02:30N 66°45' E 013°28'511.0
2018-Feb-21 02:00N 66°45' E 013°14'612.1
2018-Feb-21 01:30N 66°51' E 013°18'5 9.4
2018-Feb-21 01:00N 66°54' E 013°09'510.4
2018-Feb-21 00:30N 66°57' E 012°59'612.4
2018-Feb-21 00:00N 67°04' E 012°59'612.7
2018-Feb-20 23:30N 67°10' E 012°58'712.8
2018-Feb-20 22:59N 67°16' E 013°06'613.5
2018-Feb-20 22:30N 67°21' E 013°15'713.0
2018-Feb-20 21:58N 67°27' E 013°24'612.5
2018-Feb-20 21:30N 67°31' E 013°35'713.2
2018-Feb-20 21:00N 67°36' E 013°45'713.5
2018-Feb-20 20:30N 67°42' E 013°56'713.2
2018-Feb-20 19:59N 67°48' E 014°06'613.6
2018-Feb-20 19:30N 67°53' E 014°15'713.8
2018-Feb-20 19:00N 67°58' E 014°26'713.8
2018-Feb-20 18:29N 68°04' E 014°38'714.2
2018-Feb-20 18:00N 68°10' E 014°48'713.6
2018-Feb-20 17:30N 68°16' E 014°57'612.4
2018-Feb-20 17:00N 68°22' E 015°03'611.5
2018-Feb-20 16:30N 68°27' E 015°10'5 9.7
2018-Feb-20 16:00N 68°31' E 015°09'612.1
2018-Feb-20 15:30N 68°37' E 015°17'611.9
2018-Feb-20 15:00N 68°42' E 015°26'612.4
2018-Feb-20 14:30N 68°48' E 015°26'612.8
2018-Feb-20 14:00N 68°54' E 015°23'613.2
2018-Feb-20 13:30N 69°01' E 015°23'713.1
2018-Feb-20 13:00N 69°07' E 015°31'713.2
2018-Feb-20 12:29N 69°13' E 015°39'713.1
2018-Feb-20 11:59N 69°19' E 015°48'613.1
2018-Feb-20 11:30N 69°23' E 016°01'713.2
2018-Feb-20 11:00N 69°26' E 016°17'613.1
2018-Feb-20 10:30N 69°29' E 016°34'713.5
2018-Feb-20 10:00N 69°32' E 016°52'713.4
2018-Feb-20 09:30N 69°36' E 017°09'713.3
2018-Feb-20 09:00N 69°39' E 017°25'713.2
2018-Feb-20 08:30N 69°40' E 017°44'713.6
2018-Feb-20 08:00N 69°35' E 017°56'713.9
2018-Feb-20 07:30N 69°30' E 018°12'713.9
2018-Feb-20 07:00N 69°32' E 018°31'714.8
2018-Feb-20 06:31N 69°34' E 018°51'713.7
2018-Feb-20 06:00N 69°27' E 018°57'713.2
2018-Feb-20 05:30N 69°22' E 019°07'612.4
2018-Feb-20 04:59N 69°19' E 019°23'4 8.7
2018-Feb-20 04:29N 69°14' E 019°22'0 0.0
2018-Feb-20 03:59N 69°14' E 019°22'0 0.0
2018-Feb-20 03:29N 69°14' E 019°22'0 0.0
2018-Feb-20 02:59N 69°14' E 019°22'0 0.0
2018-Feb-20 02:29N 69°14' E 019°22'0 0.0
2018-Feb-20 01:59N 69°14' E 019°22'0 0.0
2018-Feb-20 01:29N 69°14' E 019°22'0 0.0
2018-Feb-20 00:59N 69°14' E 019°22'0 0.0
2018-Feb-20 00:29N 69°14' E 019°22'0 0.0
2018-Feb-19 23:59N 69°14' E 019°22'0 0.0
2018-Feb-19 23:29N 69°14' E 019°22'0 0.0
2018-Feb-19 22:59N 69°14' E 019°22'0 0.0
2018-Feb-19 22:29N 69°14' E 019°22'0 0.0
2018-Feb-19 21:59N 69°14' E 019°22'0 0.0
2018-Feb-19 21:29N 69°14' E 019°22'0 0.0
2018-Feb-19 20:59N 69°14' E 019°22'0 0.0
2018-Feb-19 20:29N 69°14' E 019°22'0 0.0
2018-Feb-19 19:59N 69°14' E 019°22'0 0.0
2018-Feb-19 19:29N 69°14' E 019°22'0 0.0
2018-Feb-19 18:59N 69°14' E 019°22'0 0.0
2018-Feb-19 18:29N 69°14' E 019°22'0 0.0
2018-Feb-19 17:59N 69°14' E 019°22'0 0.0
2018-Feb-19 17:29N 69°14' E 019°22'0 0.0
2018-Feb-19 16:59N 69°14' E 019°22'0 0.0
2018-Feb-19 16:29N 69°14' E 019°22'0 0.1
2018-Feb-19 15:59N 69°14' E 019°22'0 0.0
2018-Feb-19 15:29N 69°14' E 019°22'0 0.0
2018-Feb-19 14:59N 69°14' E 019°22'0 0.0
2018-Feb-19 14:29N 69°14' E 019°22'0 0.0
2018-Feb-19 13:59N 69°14' E 019°22'0 0.0
2018-Feb-19 13:29N 69°14' E 019°22'0 0.0
2018-Feb-19 13:01N 69°14' E 019°22'0 0.1
2018-Feb-19 12:30N 69°14' E 019°22'2 4.6
2018-Feb-19 12:00N 69°17' E 019°22'611.5
2018-Feb-19 11:30N 69°22' E 019°13'611.2
2018-Feb-19 10:59N 69°25' E 019°01'612.7
2018-Feb-19 10:30N 69°31' E 018°55'510.5
2018-Feb-19 10:00N 69°33' E 018°41'713.3
2018-Feb-19 09:30N 69°31' E 018°23'612.1
2018-Feb-19 08:59N 69°31' E 018°06'612.5
2018-Feb-19 08:30N 69°36' E 017°54'611.1
2018-Feb-19 08:00N 69°40' E 017°42'612.4
2018-Feb-19 07:30N 69°39' E 017°25'713.2
2018-Feb-19 07:00N 69°37' E 017°07'713.2
2018-Feb-19 06:30N 69°35' E 016°49'712.7
2018-Feb-19 05:59N 69°33' E 016°30'613.2
2018-Feb-19 05:30N 69°31' E 016°13'713.2
2018-Feb-19 04:59N 69°30' E 015°54'613.3
2018-Feb-19 04:30N 69°28' E 015°36'713.3
2018-Feb-19 04:00N 69°26' E 015°19'713.4
2018-Feb-19 03:30N 69°21' E 015°04'713.1
2018-Feb-19 02:59N 69°17' E 014°50'612.8
2018-Feb-19 02:30N 69°13' E 014°37'713.1
2018-Feb-19 02:00N 69°09' E 014°22'713.2
2018-Feb-19 01:30N 69°03' E 014°11'612.9
2018-Feb-19 01:00N 68°58' E 014°01'712.8
2018-Feb-19 00:29N 68°53' E 013°50'612.8
2018-Feb-19 00:00N 68°47' E 013°40'713.0
2018-Feb-18 23:30N 68°42' E 013°30'613.0
2018-Feb-18 23:00N 68°37' E 013°20'713.0
2018-Feb-18 22:30N 68°32' E 013°09'712.9
2018-Feb-18 22:00N 68°26' E 012°59'612.7
2018-Feb-18 21:30N 68°21' E 012°49'613.1
2018-Feb-18 21:00N 68°16' E 012°38'713.6
2018-Feb-18 20:29N 68°11' E 012°27'613.0
2018-Feb-18 20:00N 68°05' E 012°17'29712.5
2018-Feb-17 20:15N 63°36' E 007°10'512.7
2018-Feb-17 19:54N 63°32' E 007°04'512.4
2018-Feb-17 19:30N 63°28' E 006°58'713.6
2018-Feb-17 19:00N 63°24' E 006°48'5213.3
2018-Feb-17 15:05N 62°46' E 005°28'112.8
2018-Feb-17 14:58N 62°45' E 005°26'2512.7
2018-Feb-17 13:00N 62°25' E 004°52'713.3
2018-Feb-17 12:30N 62°19' E 004°48'713.1
2018-Feb-17 11:59N 62°13' E 004°43'713.6
2018-Feb-17 11:29N 62°06' E 004°39'714.7
2018-Feb-17 11:00N 61°59' E 004°35'714.4
2018-Feb-17 10:30N 61°52' E 004°31'713.1
2018-Feb-17 10:00N 61°46' E 004°29'510.6
2018-Feb-17 09:30N 61°43' E 004°38'611.4
2018-Feb-17 09:00N 61°41' E 004°49'713.2
2018-Feb-17 08:30N 61°36' E 004°58'1 2.4
2018-Feb-17 07:59N 61°35' E 005°00'0 0.0
2018-Feb-17 07:30N 61°35' E 005°00'0 0.0
2018-Feb-17 07:00N 61°35' E 005°00'0 0.0
2018-Feb-17 06:30N 61°35' E 005°00'0 0.0
2018-Feb-17 06:00N 61°35' E 005°00'0 0.0
2018-Feb-17 05:30N 61°35' E 005°00'0 0.0
2018-Feb-17 05:00N 61°35' E 005°00'0 0.0
2018-Feb-17 04:30N 61°35' E 005°00'0 0.0
2018-Feb-17 04:00N 61°35' E 005°00'0 0.0
2018-Feb-17 03:30N 61°35' E 005°00'0 0.0
2018-Feb-17 03:00N 61°35' E 005°00'0 0.0
2018-Feb-17 02:30N 61°35' E 005°00'0 0.0
2018-Feb-17 02:00N 61°35' E 005°00'0 0.0
2018-Feb-17 01:30N 61°35' E 005°00'0 0.0
2018-Feb-17 01:00N 61°35' E 005°00'0 0.0
2018-Feb-17 00:30N 61°35' E 005°00'0 0.0
2018-Feb-17 00:00N 61°35' E 005°00'0 0.0
2018-Feb-16 23:30N 61°35' E 005°00'0 0.0
2018-Feb-16 23:00N 61°35' E 005°00'0 0.0
2018-Feb-16 22:30N 61°35' E 005°00'0 0.0
2018-Feb-16 22:00N 61°35' E 005°00'0 0.0
2018-Feb-16 21:30N 61°35' E 005°00'0 0.0
2018-Feb-16 21:00N 61°35' E 005°00'0 0.0
2018-Feb-16 20:30N 61°35' E 005°00'0 0.0
2018-Feb-16 20:00N 61°35' E 005°00'0 0.0
2018-Feb-16 19:27N 61°35' E 005°00'0 0.0
2018-Feb-16 19:00N 61°35' E 005°00'0 0.0
2018-Feb-16 18:30N 61°35' E 005°00'1 1.6
2018-Feb-16 17:59N 61°35' E 004°59'3 6.8
2018-Feb-16 17:30N 61°33' E 004°53'611.2
2018-Feb-16 17:00N 61°32' E 004°41'611.3
2018-Feb-16 16:30N 61°30' E 004°30'611.3
2018-Feb-16 16:00N 61°27' E 004°20'2012.8
2018-Feb-16 14:25N 61°07' E 004°15'613.8
2018-Feb-16 14:00N 61°01' E 004°15'612.2
2018-Feb-16 13:30N 60°55' E 004°16'2611.4
2018-Feb-16 11:13N 60°29' E 004°16'310.7
2018-Feb-16 10:58N 60°26' E 004°16'4010.4
2018-Feb-16 07:06N 59°48' E 004°37'111.5
2018-Feb-16 06:59N 59°47' E 004°39'612.7
2018-Feb-16 06:30N 59°42' E 004°46'713.2
2018-Feb-16 06:00N 59°36' E 004°54'713.0
2018-Feb-16 05:30N 59°31' E 005°02'612.6
2018-Feb-16 05:00N 59°27' E 005°11'3 6.4
2018-Feb-16 04:29N 59°25' E 005°15'0 0.0
2018-Feb-16 03:59N 59°25' E 005°15'0 0.0
2018-Feb-16 03:29N 59°25' E 005°15'0 0.0
2018-Feb-16 02:59N 59°25' E 005°15'0 0.0
2018-Feb-16 02:29N 59°25' E 005°15'0 0.0
2018-Feb-16 01:59N 59°25' E 005°15'0 0.0
2018-Feb-16 01:29N 59°25' E 005°15'0 0.0
2018-Feb-16 00:59N 59°25' E 005°15'0 0.0
2018-Feb-16 00:30N 59°25' E 005°15'2 4.0
2018-Feb-16 00:00N 59°23' E 005°18'5 9.8
2018-Feb-15 23:30N 59°18' E 005°20'612.5
2018-Feb-15 23:00N 59°12' E 005°21'612.2
2018-Feb-15 22:30N 59°06' E 005°21'612.5
2018-Feb-15 22:00N 58°60' E 005°19'612.6
2018-Feb-15 21:30N 58°54' E 005°18'713.3
2018-Feb-15 21:01N 58°47' E 005°17'612.7
2018-Feb-15 20:31N 58°41' E 005°17'612.0
2018-Feb-15 20:01N 58°35' E 005°16'711.7
2018-Feb-15 19:26N 58°28' E 005°15'510.8
2018-Feb-15 19:00N 58°23' E 005°18'611.8
2018-Feb-15 18:30N 58°20' E 005°27'611.5
2018-Feb-15 18:00N 58°16' E 005°36'611.8
2018-Feb-15 17:30N 58°12' E 005°44'611.6
2018-Feb-15 17:00N 58°08' E 005°52'510.7
2018-Feb-15 16:31N 58°05' E 005°59'510.3
2018-Feb-15 16:00N 58°01' E 006°07'510.1
2018-Feb-15 15:31N 57°58' E 006°14'510.2
2018-Feb-15 14:59N 57°55' E 006°22'510.2
2018-Feb-15 14:30N 57°52' E 006°29'510.3
2018-Feb-15 13:59N 57°49' E 006°37'510.0
2018-Feb-15 13:30N 57°48' E 006°46'5 9.7
2018-Feb-15 13:01N 57°47' E 006°55'4 8.6
2018-Feb-15 12:30N 57°47' E 007°03'4 8.2
2018-Feb-15 12:00N 57°46' E 007°11'4 8.3
2018-Feb-15 11:30N 57°46' E 007°19'4 8.3
2018-Feb-15 11:01N 57°46' E 007°26'5 8.8
2018-Feb-15 10:30N 57°46' E 007°35'4 8.9
2018-Feb-15 10:00N 57°46' E 007°43'4 8.9
2018-Feb-15 09:29N 57°46' E 007°52'4 8.4
2018-Feb-15 09:00N 57°46' E 007°59'5 9.1
2018-Feb-15 08:30N 57°46' E 008°08'8210.3
2018-Feb-15 00:33N 57°49' E 010°41'110.1
2018-Feb-15 00:30N 57°49' E 010°42'510.9
2018-Feb-15 00:01N 57°47' E 010°51'612.4
2018-Feb-14 23:30N 57°42' E 010°59'713.1
2018-Feb-14 23:00N 57°38' E 011°08'713.4
2018-Feb-14 22:31N 57°33' E 011°17'713.0
2018-Feb-14 22:00N 57°29' E 011°25'612.2
2018-Feb-14 21:30N 57°23' E 011°30'713.1
2018-Feb-14 21:00N 57°17' E 011°33'713.0
2018-Feb-14 20:30N 57°11' E 011°37'612.4
2018-Feb-14 19:59N 57°05' E 011°42'5012.4
2018-Feb-14 16:00N 56°17' E 012°08'612.5
2018-Feb-14 15:31N 56°14' E 012°16'612.6
2018-Feb-14 15:01N 56°10' E 012°26'713.7
2018-Feb-14 14:30N 56°06' E 012°35'713.4
2018-Feb-14 14:00N 55°60' E 012°41'612.8
2018-Feb-14 13:30N 55°54' E 012°44'612.8
2018-Feb-14 13:00N 55°48' E 012°43'612.8
2018-Feb-14 12:30N 55°41' E 012°41'510.6
2018-Feb-14 12:00N 55°36' E 012°42'4 8.9
2018-Feb-14 11:30N 55°31' E 012°43'612.3
2018-Feb-14 11:00N 55°25' E 012°41'612.5
2018-Feb-14 10:30N 55°19' E 012°40'611.5
2018-Feb-14 09:59N 55°17' E 012°50'612.2
2018-Feb-14 09:30N 55°15' E 012°59'612.4
2018-Feb-14 08:59N 55°15' E 013°11'612.4
2018-Feb-14 08:30N 55°14' E 013°21'612.3
2018-Feb-14 08:00N 55°14' E 013°32'612.3
2018-Feb-14 07:29N 55°14' E 013°43'1712.0
2018-Feb-14 06:02N 55°10' E 014°13'112.7
2018-Feb-14 05:58N 55°10' E 014°14'612.6
2018-Feb-14 05:30N 55°06' E 014°21'612.5
2018-Feb-14 05:00N 55°01' E 014°29'612.4
2018-Feb-14 04:30N 54°57' E 014°37'612.3
2018-Feb-14 03:59N 54°52' E 014°45'612.1
2018-Feb-14 03:30N 54°49' E 014°53'612.2
2018-Feb-14 03:00N 54°49' E 015°03'712.3
2018-Feb-14 02:29N 54°49' E 015°14'9912.3
2018-Feb-13 18:25N 54°58' E 018°06'512.1
2018-Feb-13 18:00N 54°59' E 018°15'612.3
2018-Feb-13 17:30N 54°59' E 018°26'612.0
2018-Feb-13 17:00N 54°59' E 018°36'  

Dump ship's entire track history